createdAt,value
2022-10-09T00:00:42.042Z,100854.97
2022-10-09T00:03:08.735Z,100851.94
2022-10-09T00:05:35.814Z,100851.38
2022-10-09T00:08:02.726Z,100846.53
2022-10-09T00:10:29.489Z,100849.41
2022-10-09T00:12:56.691Z,100849.59
2022-10-09T00:15:23.426Z,100846.25
2022-10-09T00:17:50.223Z,100842.63
2022-10-09T00:20:17.047Z,100844.44
2022-10-09T00:22:43.714Z,100843.06
2022-10-09T00:25:10.608Z,100854.34
2022-10-09T00:27:37.331Z,100845.03
2022-10-09T00:30:04.430Z,100837.75
2022-10-09T00:32:31.325Z,100840.31
2022-10-09T00:34:58.054Z,100848.47
2022-10-09T00:37:24.686Z,100838.72
2022-10-09T00:39:51.562Z,100846.28
2022-10-09T00:42:18.445Z,100848.44
2022-10-09T00:44:57.202Z,100847.66
2022-10-09T00:47:30.487Z,100848.06
2022-10-09T00:50:02.169Z,100840.00
2022-10-09T00:52:29.096Z,100835.19
2022-10-09T00:54:56.246Z,100839.44
2022-10-09T00:57:23.331Z,100832.81
2022-10-09T00:59:50.186Z,100837.94
2022-10-09T01:02:16.890Z,100835.16
2022-10-09T01:04:43.622Z,100832.19
2022-10-09T01:07:18.906Z,100823.31
2022-10-09T01:09:57.432Z,100835.53
2022-10-09T01:13:00.664Z,100823.94
2022-10-09T01:15:30.227Z,100824.56
2022-10-09T01:18:24.267Z,100826.72
2022-10-09T01:21:03.132Z,100824.91
2022-10-09T01:23:54.855Z,100824.19
2022-10-09T01:26:27.150Z,100817.25
2022-10-09T01:28:57.463Z,100825.66
2022-10-09T01:31:27.133Z,100819.59
2022-10-09T01:33:54.246Z,100815.34
2022-10-09T01:36:22.035Z,100814.09
2022-10-09T01:38:48.954Z,100811.34
2022-10-09T01:41:15.780Z,100814.41
2022-10-09T01:43:42.491Z,100811.03
2022-10-09T01:46:18.349Z,100812.09
2022-10-09T01:48:49.669Z,100810.81
2022-10-09T01:51:17.963Z,100802.03
2022-10-09T01:53:44.661Z,100804.34
2022-10-09T01:56:19.203Z,100794.19
2022-10-09T01:58:51.394Z,100795.41
2022-10-09T02:01:21.455Z,100790.47
2022-10-09T02:03:49.826Z,100793.41
2022-10-09T02:06:17.818Z,100788.47
2022-10-09T02:08:47.007Z,100786.66
2022-10-09T02:11:15.155Z,100784.63
2022-10-09T02:13:42.267Z,100791.81
2022-10-09T02:16:37.391Z,100781.56
2022-10-09T02:19:22.372Z,100775.41
2022-10-09T02:22:08.204Z,100776.06
2022-10-09T02:24:37.858Z,100778.28
2022-10-09T02:27:04.777Z,100774.06
2022-10-09T02:29:31.978Z,100775.28
2022-10-09T02:31:58.874Z,100773.00
2022-10-09T02:34:25.585Z,100777.41
2022-10-09T02:36:52.231Z,100769.59
2022-10-09T02:39:18.945Z,100770.53
2022-10-09T02:41:45.613Z,100772.84
2022-10-09T02:44:12.627Z,100766.09
2022-10-09T02:46:39.655Z,100774.25
2022-10-09T02:49:06.853Z,100768.00
2022-10-09T02:51:33.787Z,100771.06
2022-10-09T02:54:00.582Z,100766.09
2022-10-09T02:56:27.941Z,100760.25
2022-10-09T02:58:54.672Z,100757.09
2022-10-09T03:01:21.722Z,100756.72
2022-10-09T03:03:48.462Z,100760.47
2022-10-09T03:06:18.351Z,100752.34
2022-10-09T03:08:47.244Z,100759.53
2022-10-09T03:11:15.617Z,100762.72
2022-10-09T03:13:42.836Z,100764.19
2022-10-09T03:16:15.291Z,100761.66
2022-10-09T03:18:42.183Z,100767.50
2022-10-09T03:21:11.532Z,100763.78
2022-10-09T03:23:39.413Z,100767.06
2022-10-09T03:26:08.562Z,100753.19
2022-10-09T03:28:39.569Z,100765.38
2022-10-09T03:31:06.886Z,100771.09
2022-10-09T03:33:35.082Z,100766.97
2022-10-09T03:36:02.252Z,100760.94
2022-10-09T03:38:29.145Z,100768.56
2022-10-09T03:40:58.333Z,100762.09
2022-10-09T03:43:25.062Z,100769.09
2022-10-09T03:45:52.139Z,100762.41
2022-10-09T03:48:19.058Z,100773.22
2022-10-09T03:50:45.701Z,100769.28
2022-10-09T03:53:12.915Z,100773.34
2022-10-09T03:55:40.412Z,100772.06
2022-10-09T03:58:07.857Z,100774.81
2022-10-09T04:00:35.243Z,100770.69
2022-10-09T04:03:02.218Z,100779.06
2022-10-09T04:05:30.342Z,100774.94
2022-10-09T04:07:57.220Z,100784.56
2022-10-09T04:10:24.069Z,100777.38
2022-10-09T04:12:51.015Z,100789.63
2022-10-09T04:15:18.188Z,100781.81
2022-10-09T04:17:44.833Z,100781.91
2022-10-09T04:20:11.530Z,100768.56
2022-10-09T04:22:38.175Z,100778.28
2022-10-09T04:25:05.134Z,100765.91
2022-10-09T04:27:31.987Z,100764.19
2022-10-09T04:29:58.713Z,100766.97
2022-10-09T04:32:25.347Z,100771.41
2022-10-09T04:34:51.989Z,100763.97
2022-10-09T04:37:20.288Z,100771.06
2022-10-09T04:39:46.950Z,100775.09
2022-10-09T04:42:13.755Z,100767.06
2022-10-09T04:44:40.561Z,100763.56
2022-10-09T04:47:11.156Z,100772.16
2022-10-09T04:49:38.104Z,100772.97
2022-10-09T04:52:04.809Z,100769.78
2022-10-09T04:54:31.637Z,100762.19
2022-10-09T04:56:58.264Z,100775.75
2022-10-09T04:59:25.116Z,100763.63
2022-10-09T05:01:51.775Z,100774.56
2022-10-09T05:04:18.517Z,100771.91
2022-10-09T05:06:45.154Z,100767.25
2022-10-09T05:09:11.784Z,100768.34
2022-10-09T05:11:42.456Z,100768.72
2022-10-09T05:14:09.786Z,100770.66
2022-10-09T05:16:55.064Z,100767.75
2022-10-09T05:19:23.509Z,100769.56
2022-10-09T05:21:50.173Z,100769.66
2022-10-09T05:24:17.044Z,100766.06
2022-10-09T05:26:43.828Z,100772.41
2022-10-09T05:29:10.464Z,100764.59
2022-10-09T05:31:37.630Z,100765.22
2022-10-09T05:34:04.896Z,100764.56
2022-10-09T05:36:31.590Z,100760.34
2022-10-09T05:39:01.043Z,100767.84
2022-10-09T05:41:29.509Z,100763.59
2022-10-09T05:44:01.139Z,100764.97
2022-10-09T05:46:29.935Z,100775.03
2022-10-09T05:49:02.190Z,100766.91
2022-10-09T05:51:36.955Z,100772.44
2022-10-09T05:54:04.481Z,100763.59
2022-10-09T05:56:33.478Z,100767.44
2022-10-09T05:59:07.928Z,100765.69
2022-10-09T06:01:36.675Z,100766.69
2022-10-09T06:04:04.597Z,100761.81
2022-10-09T06:06:33.257Z,100758.31
2022-10-09T06:08:59.906Z,100762.47
2022-10-09T06:11:29.077Z,100764.19
2022-10-09T06:13:56.413Z,100764.06
2022-10-09T06:16:26.433Z,100760.56
2022-10-09T06:18:54.134Z,100769.47
2022-10-09T06:21:21.834Z,100770.84
2022-10-09T06:23:52.837Z,100782.91
2022-10-09T06:26:20.225Z,100774.06
2022-10-09T06:28:47.613Z,100775.63
2022-10-09T06:31:20.281Z,100770.47
2022-10-09T06:33:48.313Z,100776.81
2022-10-09T06:36:17.661Z,100781.09
2022-10-09T06:38:44.719Z,100776.94
2022-10-09T06:41:13.837Z,100778.44
2022-10-09T06:43:40.707Z,100781.06
2022-10-09T06:46:09.604Z,100785.22
2022-10-09T06:48:38.317Z,100787.22
2022-10-09T06:51:07.515Z,100792.53
2022-10-09T06:53:45.804Z,100792.84
2022-10-09T06:56:12.834Z,100793.81
2022-10-09T06:58:40.232Z,100789.66
2022-10-09T07:01:15.309Z,100794.56
2022-10-09T07:03:43.853Z,100790.72
2022-10-09T07:06:18.873Z,100789.13
2022-10-09T07:08:49.734Z,100784.47
2022-10-09T07:11:25.542Z,100799.34
2022-10-09T07:13:54.772Z,100789.13
2022-10-09T07:16:23.810Z,100791.16
2022-10-09T07:18:50.729Z,100790.84
2022-10-09T07:21:17.465Z,100786.28
2022-10-09T07:23:44.262Z,100780.75
2022-10-09T07:26:16.436Z,100783.09
2022-10-09T07:28:46.975Z,100778.38
2022-10-09T07:31:14.555Z,100789.09
2022-10-09T07:33:44.119Z,100779.53
2022-10-09T07:36:11.089Z,100779.84
2022-10-09T07:38:37.865Z,100778.34
2022-10-09T07:41:07.525Z,100776.00
2022-10-09T07:43:38.761Z,100771.44
2022-10-09T07:46:07.121Z,100771.38
2022-10-09T07:48:35.108Z,100767.19
2022-10-09T07:51:09.013Z,100766.56
2022-10-09T07:53:36.139Z,100769.28
2022-10-09T07:56:04.318Z,100764.94
2022-10-09T07:58:31.502Z,100765.47
2022-10-09T08:01:04.548Z,100753.88
2022-10-09T08:03:31.272Z,100754.13
2022-10-09T08:05:58.017Z,100763.34
2022-10-09T08:08:24.917Z,100756.41
2022-10-09T08:10:51.630Z,100764.63
2022-10-09T08:13:18.278Z,100759.47
2022-10-09T08:15:45.265Z,100751.66
2022-10-09T08:18:12.540Z,100755.75
2022-10-09T08:20:39.407Z,100747.69
2022-10-09T08:23:06.253Z,100750.84
2022-10-09T08:25:37.333Z,100748.78
2022-10-09T08:28:04.791Z,100747.25
2022-10-09T08:30:31.506Z,100743.28
2022-10-09T08:32:58.220Z,100748.94
2022-10-09T08:35:24.910Z,100754.41
2022-10-09T08:37:51.667Z,100745.09
2022-10-09T08:40:54.927Z,100745.69
2022-10-09T08:43:34.331Z,100743.41
2022-10-09T08:46:03.663Z,100739.09
2022-10-09T08:48:35.099Z,100741.25
2022-10-09T08:51:03.643Z,100740.81
2022-10-09T08:53:38.198Z,100733.41
2022-10-09T08:56:06.216Z,100731.50
2022-10-09T08:58:34.438Z,100731.00
2022-10-09T09:01:36.451Z,100735.13
2022-10-09T09:04:32.868Z,100723.63
2022-10-09T09:07:35.780Z,100718.31
2022-10-09T09:10:18.830Z,100717.47
2022-10-09T09:13:24.167Z,100715.03
2022-10-09T09:15:56.135Z,100708.66
2022-10-09T09:18:42.057Z,100703.91
2022-10-09T09:21:22.550Z,100702.22
2022-10-09T09:23:49.347Z,100694.34
2022-10-09T09:26:18.002Z,100701.00
2022-10-09T09:28:44.907Z,100694.47
2022-10-09T09:31:28.159Z,100690.72
2022-10-09T09:34:11.318Z,100692.13
2022-10-09T09:36:55.822Z,100682.72
2022-10-09T09:40:08.243Z,100680.13
2022-10-09T09:42:17.641Z,100678.34
2022-10-09T09:45:00.629Z,100680.13
2022-10-09T09:47:38.997Z,100665.50
2022-10-09T09:50:06.399Z,100663.88
2022-10-09T09:52:40.273Z,100674.16
2022-10-09T09:55:07.434Z,100657.78
2022-10-09T09:57:36.608Z,100649.66
2022-10-09T10:00:29.808Z,100658.53
2022-10-09T10:03:23.189Z,100647.25
2022-10-09T10:05:49.889Z,100642.00
2022-10-09T10:08:31.282Z,100640.31
2022-10-09T10:11:00.318Z,100631.69
2022-10-09T10:13:34.534Z,100632.25
2022-10-09T10:16:01.773Z,100630.06
2022-10-09T10:18:32.158Z,100626.16
2022-10-09T10:21:11.553Z,100628.22
2022-10-09T10:23:41.998Z,100618.63
2022-10-09T10:26:20.701Z,100617.19
2022-10-09T10:28:52.202Z,100616.41
2022-10-09T10:31:36.242Z,100611.31
2022-10-09T10:34:03.529Z,100608.72
2022-10-09T10:36:30.194Z,100602.28
2022-10-09T10:39:05.251Z,100599.63
2022-10-09T10:41:36.774Z,100596.56
2022-10-09T10:44:19.039Z,100599.34
2022-10-09T10:46:59.857Z,100587.56
2022-10-09T10:49:30.617Z,100581.56
2022-10-09T10:52:47.414Z,100577.63
2022-10-09T10:55:32.126Z,100572.16
2022-10-09T10:58:28.272Z,100583.28
2022-10-09T11:01:06.468Z,100579.50
2022-10-09T11:03:43.142Z,100577.28
2022-10-09T11:06:22.906Z,100570.56
2022-10-09T11:09:11.785Z,100566.94
2022-10-09T11:11:50.200Z,100556.56
2022-10-09T11:14:35.429Z,100557.41
2022-10-09T11:17:18.757Z,100555.06
2022-10-09T11:19:53.077Z,100541.81
2022-10-09T11:22:28.156Z,100536.94
2022-10-09T11:25:13.467Z,100536.41
2022-10-09T11:28:03.140Z,100534.47
2022-10-09T11:30:42.872Z,100531.22
2022-10-09T11:33:29.558Z,100524.22
2022-10-09T11:36:07.026Z,100522.53
2022-10-09T11:38:38.358Z,100530.84
2022-10-09T11:41:07.417Z,100525.94
2022-10-09T11:43:52.973Z,100512.16
2022-10-09T11:46:38.859Z,100503.72
2022-10-09T11:49:24.897Z,100508.94
2022-10-09T11:52:11.005Z,100491.66
2022-10-09T11:54:37.653Z,100492.22
2022-10-09T11:57:06.295Z,100497.13
2022-10-09T11:59:36.397Z,100493.47
2022-10-09T12:02:25.887Z,100485.88
2022-10-09T12:04:55.491Z,100482.25
2022-10-09T12:07:26.981Z,100481.94
2022-10-09T12:09:59.205Z,100477.44
2022-10-09T12:12:25.960Z,100469.00
2022-10-09T12:14:53.148Z,100460.00
2022-10-09T12:17:22.814Z,100455.50
2022-10-09T12:20:02.025Z,100456.78
2022-10-09T12:22:39.982Z,100451.84
2022-10-09T12:25:13.329Z,100446.94
2022-10-09T12:27:41.834Z,100449.19
2022-10-09T12:30:12.686Z,100432.28
2022-10-09T12:32:43.730Z,100433.81
2022-10-09T12:35:16.600Z,100424.84
2022-10-09T12:37:43.254Z,100418.19
2022-10-09T12:40:15.683Z,100415.41
2022-10-09T12:42:44.118Z,100414.13
2022-10-09T12:45:18.785Z,100405.94
2022-10-09T12:47:46.178Z,100397.50
2022-10-09T12:50:15.852Z,100400.03
2022-10-09T12:52:55.183Z,100394.97
2022-10-09T12:55:29.284Z,100394.53
2022-10-09T12:58:03.384Z,100381.03
2022-10-09T13:00:32.173Z,100378.75
2022-10-09T13:02:59.095Z,100366.22
2022-10-09T13:05:37.553Z,100362.03
2022-10-09T13:08:04.670Z,100359.47
2022-10-09T13:10:31.409Z,100358.63
2022-10-09T13:12:58.872Z,100354.00
2022-10-09T13:15:32.859Z,100352.84
2022-10-09T13:17:59.974Z,100354.38
2022-10-09T13:20:32.149Z,100351.03
2022-10-09T13:23:03.915Z,100351.03
2022-10-09T13:25:35.564Z,100350.88
2022-10-09T13:28:03.352Z,100340.84
2022-10-09T13:30:30.435Z,100335.38
2022-10-09T13:32:57.485Z,100331.16
2022-10-09T13:35:24.251Z,100326.81
2022-10-09T13:37:51.275Z,100325.97
2022-10-09T13:40:20.663Z,100332.16
2022-10-09T13:42:52.970Z,100319.09
2022-10-09T13:45:19.829Z,100317.41
2022-10-09T13:47:46.938Z,100311.06
2022-10-09T13:50:14.609Z,100311.94
2022-10-09T13:52:41.699Z,100304.88
2022-10-09T13:55:09.083Z,100300.53
2022-10-09T13:57:35.743Z,100301.50
2022-10-09T14:00:03.037Z,100296.16
2022-10-09T14:02:39.014Z,100296.16
2022-10-09T14:05:06.084Z,100289.03
2022-10-09T14:07:32.940Z,100288.84
2022-10-09T14:09:59.624Z,100281.84
2022-10-09T14:12:26.398Z,100285.47
2022-10-09T14:14:53.722Z,100279.47
2022-10-09T14:17:20.393Z,100278.78
2022-10-09T14:19:47.102Z,100270.75
2022-10-09T14:22:14.674Z,100270.75
2022-10-09T14:24:41.472Z,100268.91
2022-10-09T14:27:08.311Z,100265.41
2022-10-09T14:29:34.995Z,100259.22
2022-10-09T14:32:01.650Z,100264.56
2022-10-09T14:34:28.297Z,100260.91
2022-10-09T14:36:54.990Z,100257.41
2022-10-09T14:39:21.828Z,100255.56
2022-10-09T14:41:48.560Z,100245.38
2022-10-09T14:44:15.466Z,100244.56
2022-10-09T14:46:42.142Z,100250.06
2022-10-09T14:49:10.177Z,100243.88
2022-10-09T14:51:38.466Z,100242.88
2022-10-09T14:54:06.081Z,100244.72
2022-10-09T14:56:33.563Z,100237.69
2022-10-09T14:59:00.986Z,100232.34
2022-10-09T15:01:29.138Z,100232.34
2022-10-09T15:03:55.997Z,100230.66
2022-10-09T15:06:25.477Z,100233.34
2022-10-09T15:08:55.769Z,100226.28
2022-10-09T15:11:23.056Z,100222.75
2022-10-09T15:13:49.800Z,100223.06
2022-10-09T15:16:17.821Z,100224.75
2022-10-09T15:18:45.410Z,100222.94
2022-10-09T15:21:17.394Z,100215.75
2022-10-09T15:23:44.590Z,100224.75
2022-10-09T15:26:11.404Z,100212.38
2022-10-09T15:28:39.433Z,100214.91
2022-10-09T15:31:07.778Z,100221.09
2022-10-09T15:33:34.719Z,100211.38
2022-10-09T15:36:03.951Z,100198.00
2022-10-09T15:38:30.827Z,100198.00
2022-10-09T15:40:57.507Z,100199.72
2022-10-09T15:43:25.907Z,100197.03
2022-10-09T15:45:55.922Z,100198.88
2022-10-09T15:48:24.986Z,100198.00
2022-10-09T15:50:53.543Z,100193.53
2022-10-09T15:53:22.665Z,100193.53
2022-10-09T15:55:51.527Z,100188.19
2022-10-09T15:58:19.117Z,100179.06
2022-10-09T16:00:48.781Z,100185.25
2022-10-09T16:03:17.287Z,100179.72
2022-10-09T16:05:48.342Z,100182.56
2022-10-09T16:08:16.698Z,100170.16
2022-10-09T16:10:48.558Z,100173.72
2022-10-09T16:13:15.914Z,100166.53
2022-10-09T16:15:43.524Z,100166.53
2022-10-09T16:18:10.669Z,100174.56
2022-10-09T16:20:38.433Z,100172.00
2022-10-09T16:23:05.549Z,100169.22
2022-10-09T16:25:32.823Z,100164.81
2022-10-09T16:27:59.770Z,100166.53
2022-10-09T16:30:27.034Z,100159.47
2022-10-09T16:32:53.777Z,100164.16
2022-10-09T16:35:21.605Z,100162.63
2022-10-09T16:37:48.265Z,100161.94
2022-10-09T16:40:14.929Z,100161.22
2022-10-09T16:42:41.586Z,100166.06
2022-10-09T16:45:09.063Z,100164.34
2022-10-09T16:47:35.884Z,100169.63
2022-10-09T16:50:02.611Z,100167.25
2022-10-09T16:52:29.315Z,100171.59
2022-10-09T16:55:00.174Z,100172.75
2022-10-09T16:57:27.154Z,100166.31
2022-10-09T16:59:54.049Z,100173.13
2022-10-09T17:02:20.752Z,100170.75
2022-10-09T17:04:47.612Z,100174.41
2022-10-09T17:07:14.443Z,100175.00
2022-10-09T17:09:41.156Z,100170.97
2022-10-09T17:12:09.648Z,100165.06
2022-10-09T17:14:37.234Z,100168.34
2022-10-09T17:17:05.530Z,100170.47
2022-10-09T17:19:32.700Z,100166.13
2022-10-09T17:22:00.675Z,100166.13
2022-10-09T17:24:27.806Z,100172.81
2022-10-09T17:26:55.099Z,100166.94
2022-10-09T17:29:22.663Z,100169.63
2022-10-09T17:31:49.591Z,100173.00
2022-10-09T17:34:16.450Z,100168.09
2022-10-09T17:36:44.710Z,100170.31
2022-10-09T17:39:14.486Z,100172.03
2022-10-09T17:41:41.618Z,100172.34
2022-10-09T17:44:09.714Z,100174.31
2022-10-09T17:46:36.338Z,100172.94
2022-10-09T17:49:03.377Z,100180.78
2022-10-09T17:51:40.439Z,100179.31
2022-10-09T17:54:12.094Z,100184.44
2022-10-09T17:56:39.227Z,100184.97
2022-10-09T17:59:06.077Z,100178.81
2022-10-09T18:01:33.483Z,100179.66
2022-10-09T18:04:00.500Z,100179.06
2022-10-09T18:06:30.081Z,100183.41
2022-10-09T18:08:58.098Z,100172.91
2022-10-09T18:11:25.666Z,100182.44
2022-10-09T18:13:52.904Z,100177.69
2022-10-09T18:16:24.116Z,100177.44
2022-10-09T18:18:50.893Z,100180.13
2022-10-09T18:21:17.751Z,100171.97
2022-10-09T18:23:46.085Z,100173.56
2022-10-09T18:26:15.902Z,100171.44
2022-10-09T18:28:46.048Z,100175.78
2022-10-09T18:31:18.593Z,100164.88
2022-10-09T18:33:45.644Z,100167.34
2022-10-09T18:36:19.733Z,100160.25
2022-10-09T18:38:51.805Z,100170.91
2022-10-09T18:41:19.145Z,100166.44
2022-10-09T18:43:46.405Z,100167.69
2022-10-09T18:46:15.045Z,100164.03
2022-10-09T18:48:41.993Z,100161.38
2022-10-09T18:51:13.388Z,100161.06
2022-10-09T18:53:40.952Z,100167.78
2022-10-09T18:56:08.032Z,100165.00
2022-10-09T18:58:35.552Z,100171.88
2022-10-09T19:01:05.462Z,100165.91
2022-10-09T19:03:34.309Z,100167.97
2022-10-09T19:06:01.004Z,100159.97
2022-10-09T19:08:27.673Z,100161.41
2022-10-09T19:10:54.326Z,100156.22
2022-10-09T19:13:21.105Z,100162.94
2022-10-09T19:15:58.217Z,100154.22
2022-10-09T19:18:26.385Z,100158.31
2022-10-09T19:20:53.328Z,100152.84
2022-10-09T19:23:19.998Z,100160.28
2022-10-09T19:25:53.556Z,100159.31
2022-10-09T19:28:22.002Z,100153.97
2022-10-09T19:30:48.806Z,100150.47
2022-10-09T19:33:15.990Z,100156.94
2022-10-09T19:35:50.005Z,100146.81
2022-10-09T19:38:17.947Z,100153.53
2022-10-09T19:40:45.287Z,100150.16
2022-10-09T19:43:12.825Z,100147.97
2022-10-09T19:45:39.911Z,100140.63
2022-10-09T19:48:07.103Z,100150.06
2022-10-09T19:50:34.494Z,100153.72
2022-10-09T19:53:03.376Z,100142.94
2022-10-09T19:55:33.217Z,100139.97
2022-10-09T19:58:00.489Z,100139.69
2022-10-09T20:00:27.335Z,100134.06
2022-10-09T20:02:54.061Z,100142.50
2022-10-09T20:05:21.356Z,100131.16
2022-10-09T20:07:48.219Z,100139.97
2022-10-09T20:10:14.922Z,100131.44
2022-10-09T20:12:41.674Z,100141.66
2022-10-09T20:15:08.966Z,100133.41
2022-10-09T20:17:35.729Z,100142.38
2022-10-09T20:20:06.378Z,100145.34
2022-10-09T20:22:33.163Z,100141.31
2022-10-09T20:24:59.807Z,100140.03
2022-10-09T20:27:26.486Z,100133.56
2022-10-09T20:29:53.870Z,100144.94
2022-10-09T20:32:20.494Z,100147.06
2022-10-09T20:34:47.216Z,100145.22
2022-10-09T20:37:13.859Z,100141.31
2022-10-09T20:39:40.672Z,100142.69
2022-10-09T20:42:07.526Z,100145.78
2022-10-09T20:44:34.492Z,100143.41
2022-10-09T20:47:01.147Z,100134.69
2022-10-09T20:49:27.938Z,100140.19
2022-10-09T20:51:56.746Z,100142.16
2022-10-09T20:54:23.562Z,100133.75
2022-10-09T20:56:50.712Z,100142.16
2022-10-09T20:59:18.118Z,100140.78
2022-10-09T21:01:45.585Z,100136.00
2022-10-09T21:04:12.658Z,100130.13
2022-10-09T21:06:39.476Z,100139.25
2022-10-09T21:09:06.697Z,100138.66
2022-10-09T21:11:35.011Z,100137.28
2022-10-09T21:14:02.628Z,100143.56
2022-10-09T21:16:29.670Z,100140.06
2022-10-09T21:18:58.667Z,100137.56
2022-10-09T21:21:26.390Z,100137.00
2022-10-09T21:23:54.518Z,100135.75
2022-10-09T21:26:22.485Z,100133.63
2022-10-09T21:28:49.285Z,100136.56
2022-10-09T21:31:18.565Z,100131.13
2022-10-09T21:33:46.022Z,100137.00
2022-10-09T21:36:36.060Z,100132.34
2022-10-09T21:39:04.274Z,100128.03
2022-10-09T21:41:31.048Z,100131.78
2022-10-09T21:43:57.837Z,100129.56
2022-10-09T21:46:24.657Z,100123.50
2022-10-09T21:48:51.313Z,100124.94
2022-10-09T21:51:18.091Z,100128.28
2022-10-09T21:53:45.115Z,100129.13
2022-10-09T21:56:12.054Z,100124.50
2022-10-09T21:58:40.265Z,100126.88
2022-10-09T22:01:07.242Z,100132.50
2022-10-09T22:03:35.441Z,100127.16
2022-10-09T22:06:07.418Z,100126.59
2022-10-09T22:08:34.354Z,100124.94
2022-10-09T22:11:03.990Z,100122.13
2022-10-09T22:13:30.740Z,100129.13
2022-10-09T22:15:57.398Z,100124.22
2022-10-09T22:18:24.062Z,100121.25
2022-10-09T22:20:51.287Z,100115.09
2022-10-09T22:23:19.476Z,100111.47
2022-10-09T22:25:58.630Z,100104.63
2022-10-09T22:28:25.547Z,100111.47
2022-10-09T22:31:03.931Z,100103.06
2022-10-09T22:33:31.203Z,100100.25
2022-10-09T22:36:04.978Z,100093.84
2022-10-09T22:38:32.017Z,100093.84
2022-10-09T22:41:06.513Z,100085.97
2022-10-09T22:43:33.186Z,100087.94
2022-10-09T22:46:00.016Z,100080.22
2022-10-09T22:48:26.662Z,100083.59
2022-10-09T22:50:53.299Z,100081.06
2022-10-09T22:53:20.005Z,100085.97
2022-10-09T22:55:46.620Z,100087.94
2022-10-09T22:58:13.391Z,100082.19
2022-10-09T23:00:40.023Z,100078.16
2022-10-09T23:03:06.888Z,100077.44
2022-10-09T23:05:33.577Z,100082.88
2022-10-09T23:08:00.247Z,100079.53
2022-10-09T23:10:26.998Z,100067.06
2022-10-09T23:12:53.770Z,100079.81
2022-10-09T23:15:20.439Z,100080.22
2022-10-09T23:17:47.131Z,100070.44
2022-10-09T23:20:13.851Z,100072.38
2022-10-09T23:22:40.650Z,100072.94
2022-10-09T23:25:07.678Z,100071.38
2022-10-09T23:27:34.319Z,100076.28
2022-10-09T23:30:01.057Z,100077.97
2022-10-09T23:32:27.935Z,100071.66
2022-10-09T23:34:54.685Z,100078.81
2022-10-09T23:37:21.351Z,100076.72
2022-10-09T23:39:48.056Z,100082.13
2022-10-09T23:42:14.737Z,100065.19
2022-10-09T23:44:41.410Z,100057.63
2022-10-09T23:47:08.107Z,100059.28
2022-10-09T23:49:34.887Z,100061.13
2022-10-09T23:52:01.633Z,100053.97
2022-10-09T23:54:28.335Z,100062.25
2022-10-09T23:56:54.977Z,100063.34
2022-10-09T23:59:21.642Z,100057.34
